Time;durP1;ratioP1;P1;durP2;ratioP2;P2;SDS_P1;SDS_P2;PMS_P1;PMS_P2;Temp;Humidity;BMP_temperature;BMP_pressure;BME280_temperature;BME280_humidity;BME280_pressure;Samples;Min_cycle;Max_cycle;Signal;HPM_P1;HPM_P2
2023/04/24 00:02:21;;;;;;;4.82;4.32;;;;;;;15.32;54.11;98001.47;5068538;28;20062;-70
2023/04/24 00:04:49;;;;;;;4.35;3.85;;;;;;;15.30;54.20;97996.28;5068381;28;20209;-69
2023/04/24 00:07:17;;;;;;;4.80;4.30;;;;;;;15.27;54.37;97995.75;5068233;28;20047;-69
2023/04/24 00:09:43;;;;;;;5.20;4.47;;;;;;;15.24;54.14;97986.19;5067738;28;20037;-69
2023/04/24 00:12:10;;;;;;;6.00;4.65;;;;;;;14.55;54.10;97863.84;5068014;28;20088;-69
2023/04/24 00:14:37;;;;;;;5.97;4.65;;;;;;;15.28;54.27;97992.94;5068658;28;20045;-69
2023/04/24 00:17:04;;;;;;;6.13;4.30;;;;;;;15.31;54.15;97983.78;5067953;28;20051;-69
2023/04/24 00:19:31;;;;;;;8.85;4.55;;;;;;;15.31;54.18;97991.78;5067937;28;20174;-69
2023/04/24 00:21:59;;;;;;;5.97;3.88;;;;;;;15.28;54.50;97992.94;5068220;28;20189;-69
2023/04/24 00:24:26;;;;;;;5.28;4.60;;;;;;;14.94;54.53;97936.59;5068045;28;20052;-69
2023/04/24 00:26:52;;;;;;;4.78;3.80;;;;;;;15.30;54.55;97990.13;5067643;28;20099;-70
2023/04/24 00:29:19;;;;;;;5.22;4.38;;;;;;;15.30;54.57;97998.13;5067648;28;20098;-69
2023/04/24 00:31:46;;;;;;;6.60;4.90;;;;;;;15.33;54.46;97988.00;5067886;28;20292;-69
2023/04/24 00:34:13;;;;;;;7.95;4.25;;;;;;;15.33;54.57;97989.81;5068120;28;20040;-70
2023/04/24 00:36:40;;;;;;;5.13;4.15;;;;;;;14.36;54.50;97840.75;5068040;28;20044;-69
2023/04/24 00:39:08;;;;;;;5.18;4.05;;;;;;;15.29;54.78;97983.94;5067437;28;20041;-69
2023/04/24 00:41:36;;;;;;;6.90;5.07;;;;;;;15.28;54.53;97976.91;5067929;28;20068;-69
2023/04/24 00:44:03;;;;;;;4.90;4.30;;;;;;;15.33;54.53;97971.13;5067180;28;20056;-69
2023/04/24 00:46:29;;;;;;;7.05;4.30;;;;;;;15.38;54.49;97979.53;5067603;28;20067;-69
2023/04/24 00:48:57;;;;;;;5.45;4.40;;;;;;;15.40;54.16;97980.22;5068015;28;20173;-69
2023/04/24 00:51:24;;;;;;;4.93;4.10;;;;;;;15.41;54.30;97976.56;5067472;28;20086;-69
2023/04/24 00:53:51;;;;;;;6.82;4.13;;;;;;;15.40;54.20;97980.22;5067475;28;20041;-69
2023/04/24 00:56:20;;;;;;;5.38;4.05;;;;;;;15.20;54.19;97939.44;5067104;28;20052;-69
2023/04/24 00:58:48;;;;;;;5.70;4.30;;;;;;;15.41;53.98;97965.91;5067120;28;20194;-69
2023/04/24 01:01:15;;;;;;;5.93;4.00;;;;;;;15.47;54.18;97980.47;5067030;28;20178;-69
2023/04/24 01:03:42;;;;;;;4.50;4.05;;;;;;;15.50;53.85;97980.19;5067521;28;20285;-69
2023/04/24 01:06:10;;;;;;;5.30;4.40;;;;;;;15.48;54.11;97975.00;5067489;28;20036;-69
2023/04/24 01:08:37;;;;;;;6.40;4.85;;;;;;;15.15;54.32;97927.53;5067073;28;20037;-68
2023/04/24 01:11:05;;;;;;;6.55;4.57;;;;;;;15.49;54.29;97989.19;5066884;28;20289;-69
2023/04/24 01:13:34;;;;;;;6.80;4.90;;;;;;;15.19;53.95;97939.59;5067096;28;20041;-69
2023/04/24 01:16:01;;;;;;;7.53;5.00;;;;;;;15.42;53.96;97980.91;5067288;28;20293;-69
2023/04/24 01:18:28;;;;;;;7.07;4.68;;;;;;;15.50;54.04;97994.38;5066987;28;20053;-70
2023/04/24 01:20:59;;;;;;;4.97;4.15;;;;;;;15.48;54.48;97996.34;5065608;28;20041;-70
2023/04/24 01:23:27;;;;;;;5.55;4.70;;;;;;;15.46;53.93;97997.50;5066601;28;20104;-69
2023/04/24 01:25:54;;;;;;;5.43;4.78;;;;;;;15.45;54.24;98004.66;5066540;28;20202;-69
2023/04/24 01:28:21;;;;;;;5.07;4.57;;;;;;;15.43;54.11;98003.13;5066683;28;20082;-69
2023/04/24 01:30:48;;;;;;;6.00;4.78;;;;;;;14.25;54.34;97822.28;5066775;28;20036;-69
2023/04/24 01:33:15;;;;;;;5.40;4.78;;;;;;;15.38;54.50;98006.22;5066799;28;20052;-69
2023/04/24 01:35:41;;;;;;;5.85;4.88;;;;;;;14.40;54.12;97860.81;5066702;28;20293;-70
2023/04/24 01:38:08;;;;;;;5.47;4.55;;;;;;;15.37;54.10;98002.72;5066322;28;20307;-69
2023/04/24 01:40:36;;;;;;;5.05;4.53;;;;;;;15.37;54.27;97997.38;5066550;28;20041;-70
2023/04/24 01:43:14;;;;;;;5.63;5.13;;;;;;;15.20;54.40;97974.13;5119887;27;20614;-70
2023/04/24 01:45:40;;;;;;;4.78;4.18;;;;;;;15.31;54.33;98003.31;5103106;28;20040;-70
2023/04/24 01:48:07;;;;;;;5.70;5.10;;;;;;;15.28;54.52;98003.59;5103632;28;20040;-69
2023/04/24 01:50:34;;;;;;;6.65;4.63;;;;;;;15.27;54.59;97999.25;5103312;28;20036;-69
2023/04/24 01:53:01;;;;;;;5.43;4.68;;;;;;;15.23;54.91;97995.19;5102112;28;20032;-69
2023/04/24 01:55:28;;;;;;;5.60;4.65;;;;;;;15.23;55.06;97999.69;5102069;28;20043;-69
2023/04/24 01:57:56;;;;;;;6.90;4.95;;;;;;;14.99;55.59;97993.03;5103155;28;20044;-69
2023/04/24 02:00:25;;;;;;;5.53;4.35;;;;;;;14.95;55.86;98018.31;5103072;28;20250;-69
2023/04/24 02:02:52;;;;;;;6.13;4.25;;;;;;;14.79;56.15;98014.56;5102815;28;20053;-69
2023/04/24 02:05:18;;;;;;;5.65;5.00;;;;;;;14.66;56.17;98012.22;5101739;28;20088;-69
2023/04/24 02:07:45;;;;;;;5.22;4.10;;;;;;;14.04;56.18;97947.66;5102700;28;20086;-69
2023/04/24 02:10:12;;;;;;;4.57;3.97;;;;;;;14.45;56.30;97998.97;5101805;28;20290;-70
2023/04/24 02:12:39;;;;;;;6.10;4.60;;;;;;;14.41;56.78;97995.75;5102018;28;20089;-69
2023/04/24 02:15:06;;;;;;;4.68;3.85;;;;;;;14.41;56.77;97993.09;5102518;28;20048;-69
2023/04/24 02:17:35;;;;;;;6.18;4.45;;;;;;;14.43;56.85;97992.94;5102496;28;20111;-69
2023/04/24 02:20:03;;;;;;;5.43;3.97;;;;;;;14.44;56.57;97994.63;5102419;28;20037;-69
2023/04/24 02:22:31;;;;;;;4.28;3.20;;;;;;;14.44;56.20;97989.28;5102335;28;20295;-69
2023/04/24 02:24:57;;;;;;;3.92;3.40;;;;;;;14.40;56.03;97986.06;5102367;28;20036;-70
2023/04/24 02:27:24;;;;;;;5.00;4.05;;;;;;;14.38;56.42;98001.38;5102316;28;20058;-70
2023/04/24 02:29:51;;;;;;;5.47;3.67;;;;;;;14.35;56.75;97993.66;5102524;28;20052;-69
2023/04/24 02:32:18;;;;;;;4.45;3.20;;;;;;;14.30;56.14;98000.38;5101399;28;20040;-69
2023/04/24 02:34:46;;;;;;;3.95;3.25;;;;;;;14.22;56.33;97998.41;5102187;28;20227;-69
2023/04/24 02:37:13;;;;;;;4.60;3.38;;;;;;;14.26;56.23;98007.81;5101868;28;20044;-69
2023/04/24 02:39:39;;;;;;;4.22;3.53;;;;;;;14.24;56.25;98006.28;5102631;28;20055;-69
2023/04/24 02:42:07;;;;;;;4.68;3.20;;;;;;;14.16;56.77;98004.31;5101829;28;20106;-69
2023/04/24 02:44:34;;;;;;;4.57;3.55;;;;;;;14.14;56.85;98000.94;5101114;28;20048;-69
2023/04/24 02:47:01;;;;;;;3.85;3.40;;;;;;;14.13;56.53;97983.28;5102271;28;20040;-69
2023/04/24 02:49:28;;;;;;;4.78;3.35;;;;;;;13.97;56.88;97961.69;5101887;28;20045;-69
2023/04/24 02:51:56;;;;;;;5.00;3.40;;;;;;;14.18;56.54;97986.38;5101806;28;20042;-69
2023/04/24 02:54:23;;;;;;;7.38;3.92;;;;;;;14.22;56.53;97978.94;5089066;28;20055;-69
2023/04/24 02:56:50;;;;;;;4.32;3.22;;;;;;;14.21;56.33;97979.91;5088263;28;20040;-69
2023/04/24 02:59:17;;;;;;;4.50;3.05;;;;;;;14.04;56.43;97952.16;5088393;28;20108;-70
2023/04/24 03:01:44;;;;;;;5.43;3.40;;;;;;;14.16;56.52;97974.16;5088177;28;20174;-69
2023/04/24 03:04:11;;;;;;;3.85;3.05;;;;;;;13.97;56.71;97941.22;5087242;28;20147;-69
2023/04/24 03:06:38;;;;;;;4.80;2.88;;;;;;;14.06;56.67;97983.00;5088309;28;20040;-69
2023/04/24 03:09:06;;;;;;;3.85;3.08;;;;;;;14.04;56.82;97968.13;5087982;28;20037;-69
2023/04/24 03:11:33;;;;;;;3.30;2.60;;;;;;;14.03;56.88;97974.44;5087996;28;20341;-69
2023/04/24 03:14:00;;;;;;;4.25;2.70;;;;;;;14.03;57.32;97977.09;5088163;28;20296;-69
2023/04/24 03:16:27;;;;;;;3.42;2.78;;;;;;;14.01;56.90;97966.59;5088410;28;20032;-69
2023/04/24 03:18:53;;;;;;;4.13;2.90;;;;;;;14.00;56.95;97956.06;5086954;28;20301;-68
2023/04/24 03:21:20;;;;;;;4.15;3.35;;;;;;;13.94;57.00;97951.31;5086922;28;20246;-68
2023/04/24 03:23:47;;;;;;;4.85;3.58;;;;;;;13.22;57.06;97861.09;5086928;28;20033;-69
2023/04/24 03:26:15;;;;;;;4.35;3.63;;;;;;;13.86;57.40;97959.16;5086826;28;20346;-69
2023/04/24 03:28:42;;;;;;;3.50;2.70;;;;;;;13.83;57.79;97965.59;5087663;28;20048;-69
2023/04/24 03:31:09;;;;;;;6.30;3.45;;;;;;;13.32;57.83;97885.91;5087897;28;20066;-69
2023/04/24 03:33:35;;;;;;;3.90;3.00;;;;;;;13.56;57.84;97931.66;5086637;28;20040;-69
2023/04/24 03:36:02;;;;;;;3.90;2.88;;;;;;;13.72;58.29;97961.25;5087769;28;20055;-68
2023/04/24 03:38:29;;;;;;;4.05;3.00;;;;;;;13.69;58.38;97958.00;5086619;28;20041;-69
2023/04/24 03:40:56;;;;;;;4.32;2.70;;;;;;;13.66;58.30;97964.44;5086323;28;20047;-69
2023/04/24 03:43:24;;;;;;;3.17;2.67;;;;;;;13.66;58.85;97963.59;5087821;28;20299;-70
2023/04/24 03:45:51;;;;;;;3.70;3.15;;;;;;;13.67;58.49;97963.47;5086919;28;20048;-69
2023/04/24 03:48:18;;;;;;;4.03;3.08;;;;;;;13.68;58.70;97967.81;5086948;28;20090;-69
2023/04/24 03:50:45;;;;;;;3.33;2.78;;;;;;;13.68;58.69;97973.16;5087104;28;20040;-69
2023/04/24 03:53:11;;;;;;;3.90;3.20;;;;;;;13.67;58.78;97965.28;5087698;28;20078;-70
2023/04/24 03:55:38;;;;;;;3.13;2.65;;;;;;;13.65;58.71;97967.25;5087369;28;20300;-69
2023/04/24 03:58:05;;;;;;;3.97;3.10;;;;;;;13.64;59.08;97969.06;5087012;28;20045;-69
2023/04/24 04:00:34;;;;;;;3.83;2.90;;;;;;;13.60;59.80;97964.16;5087022;28;20090;-69
2023/04/24 04:03:01;;;;;;;4.13;2.70;;;;;;;13.61;59.12;97966.69;5086859;28;20464;-68
2023/04/24 04:05:27;;;;;;;3.35;2.85;;;;;;;13.60;59.24;97969.47;5085048;28;20040;-69
2023/04/24 04:07:54;;;;;;;5.18;3.35;;;;;;;13.60;59.51;97974.81;5087097;28;20044;-69
2023/04/24 04:10:21;;;;;;;3.58;3.15;;;;;;;13.61;59.17;97977.34;5069476;28;20115;-69
2023/04/24 04:12:48;;;;;;;5.25;3.08;;;;;;;13.48;59.28;97948.31;5087017;28;20040;-69
2023/04/24 04:15:15;;;;;;;4.97;2.85;;;;;;;13.67;59.50;97983.94;5085883;28;20364;-69
2023/04/24 04:17:43;;;;;;;4.30;3.05;;;;;;;13.64;59.68;97976.22;5103034;28;20053;-69
2023/04/24 04:20:10;;;;;;;3.35;2.65;;;;;;;13.64;59.61;97977.06;5086515;28;20039;-69
2023/04/24 04:22:37;;;;;;;4.38;3.10;;;;;;;13.65;59.34;97975.25;5085785;28;20036;-69
2023/04/24 04:25:05;;;;;;;4.18;2.83;;;;;;;13.66;59.37;97968.94;5086279;28;20050;-69
2023/04/24 04:27:32;;;;;;;3.90;2.70;;;;;;;13.67;59.74;97974.13;5086211;28;20115;-69
2023/04/24 04:29:59;;;;;;;4.07;2.85;;;;;;;13.66;59.51;97977.75;5086867;28;20040;-69
2023/04/24 04:32:26;;;;;;;3.38;2.80;;;;;;;13.64;59.66;97979.72;5085830;28;20028;-68
2023/04/24 04:34:54;;;;;;;3.28;2.53;;;;;;;13.65;59.92;97978.75;5085476;28;20036;-69
2023/04/24 04:37:21;;;;;;;4.10;2.80;;;;;;;13.65;59.84;97984.06;5086261;28;20094;-69
2023/04/24 04:39:48;;;;;;;3.70;2.75;;;;;;;13.61;59.96;97980.00;5086131;28;20040;-68
2023/04/24 04:42:15;;;;;;;3.88;2.30;;;;;;;13.58;59.85;97993.56;5085005;28;20053;-69
2023/04/24 04:44:42;;;;;;;3.63;2.95;;;;;;;13.43;60.07;97958.53;5085307;28;20036;-70
2023/04/24 04:47:10;;;;;;;3.40;2.38;;;;;;;13.60;59.85;97980.97;5086335;28;20032;-69
2023/04/24 04:49:38;;;;;;;4.20;3.08;;;;;;;13.62;59.81;97986.16;5085141;28;20136;-69
2023/04/24 04:52:06;;;;;;;3.35;2.80;;;;;;;13.62;60.19;97984.34;5085673;28;20228;-69
2023/04/24 04:54:33;;;;;;;3.47;2.78;;;;;;;13.65;59.56;97986.72;5086002;28;20040;-69
2023/04/24 04:57:00;;;;;;;4.55;2.35;;;;;;;13.43;59.69;97952.34;5085002;28;20048;-70
2023/04/24 04:59:27;;;;;;;3.75;2.50;;;;;;;13.66;59.79;97991.06;5084986;28;20100;-70
2023/04/24 05:01:54;;;;;;;3.20;2.70;;;;;;;13.70;59.59;97995.16;5085009;28;20055;-70
2023/04/24 05:04:21;;;;;;;3.83;2.47;;;;;;;13.55;59.62;97967.22;5085735;28;20042;-70
2023/04/24 05:06:48;;;;;;;3.33;2.65;;;;;;;13.78;59.43;98002.44;5086222;28;20170;-70
2023/04/24 05:09:16;;;;;;;3.53;2.50;;;;;;;13.78;59.62;98002.44;5086214;28;20107;-70
2023/04/24 05:11:43;;;;;;;3.22;2.05;;;;;;;13.35;59.45;97926.41;5086121;28;20040;-69
2023/04/24 05:14:10;;;;;;;4.07;2.95;;;;;;;13.85;59.34;98000.06;5086578;28;20063;-70
2023/04/24 05:16:37;;;;;;;3.67;2.47;;;;;;;13.89;59.55;97999.66;5085714;28;20059;-70
2023/04/24 05:19:05;;;;;;;5.32;3.03;;;;;;;13.90;59.24;97995.19;5084819;28;20056;-70
2023/04/24 05:21:32;;;;;;;3.88;2.67;;;;;;;13.96;59.39;97999.94;5084821;28;20268;-70
2023/04/24 05:23:58;;;;;;;4.60;2.50;;;;;;;14.01;59.30;98003.03;5085694;28;20044;-70
2023/04/24 05:26:26;;;;;;;4.18;2.90;;;;;;;14.05;59.40;98002.63;5084494;28;20044;-70
2023/04/24 05:28:53;;;;;;;4.40;2.70;;;;;;;13.78;59.02;97960.69;5085325;28;20331;-69
2023/04/24 05:31:20;;;;;;;4.68;2.67;;;;;;;14.14;58.89;98008.94;5084451;28;20054;-70
2023/04/24 05:33:47;;;;;;;3.45;2.70;;;;;;;14.20;58.62;98015.53;5085497;28;20028;-70
2023/04/24 05:36:13;;;;;;;4.82;3.05;;;;;;;14.21;58.41;98010.06;5085353;28;20047;-70
2023/04/24 05:38:40;;;;;;;4.80;2.65;;;;;;;13.57;58.81;97912.03;5085355;28;20036;-70
2023/04/24 05:41:07;;;;;;;3.55;2.88;;;;;;;13.44;58.62;97859.06;5084517;28;20059;-70
2023/04/24 05:43:35;;;;;;;3.42;2.47;;;;;;;14.33;58.36;98000.09;5085414;28;20179;-69
2023/04/24 05:46:03;;;;;;;3.28;2.53;;;;;;;14.35;58.28;98014.97;5084376;28;20047;-69
2023/04/24 05:48:30;;;;;;;3.75;2.78;;;;;;;14.37;58.12;97997.00;5085331;28;20050;-69
2023/04/24 05:50:57;;;;;;;3.70;2.90;;;;;;;14.40;57.92;97998.56;5084416;28;20044;-70
2023/04/24 05:53:24;;;;;;;4.47;2.55;;;;;;;14.47;57.99;98001.50;5084296;28;20039;-70
2023/04/24 05:55:51;;;;;;;4.25;2.85;;;;;;;14.43;57.84;98004.44;5084600;28;20119;-70
2023/04/24 05:58:17;;;;;;;3.58;3.05;;;;;;;14.48;57.66;98006.69;5084820;28;20086;-70
2023/04/24 06:00:46;;;;;;;4.60;2.72;;;;;;;14.44;57.75;98002.63;5085337;28;20090;-69
2023/04/24 06:03:13;;;;;;;3.42;2.50;;;;;;;14.41;57.68;98006.41;5084812;28;20040;-69
2023/04/24 06:05:40;;;;;;;4.07;2.45;;;;;;;14.41;57.66;98002.91;5084446;28;20059;-70
2023/04/24 06:08:07;;;;;;;4.72;2.22;;;;;;;14.29;57.36;97982.72;5084480;28;20040;-69
2023/04/24 06:10:33;;;;;;;3.78;2.13;;;;;;;14.45;57.36;98006.97;5084533;28;20079;-70
2023/04/24 06:13:01;;;;;;;3.35;2.58;;;;;;;14.50;57.02;98003.88;5085028;28;20041;-70
2023/04/24 06:15:30;;;;;;;2.92;2.28;;;;;;;14.53;57.15;98003.59;5085315;28;20307;-69
2023/04/24 06:17:58;;;;;;;3.25;2.67;;;;;;;14.53;56.91;98001.78;5084019;28;20052;-70
2023/04/24 06:20:25;;;;;;;3.67;2.17;;;;;;;14.37;56.81;97977.53;5084881;28;20047;-70
2023/04/24 06:22:52;;;;;;;4.82;3.17;;;;;;;14.49;56.99;97987.03;5084895;28;20087;-69
2023/04/24 06:25:19;;;;;;;3.60;2.75;;;;;;;14.13;56.84;97922.84;5085190;28;20041;-70
2023/04/24 06:27:47;;;;;;;3.92;2.33;;;;;;;14.67;56.75;98005.88;5085692;28;20041;-69
2023/04/24 06:30:14;;;;;;;3.88;2.63;;;;;;;14.25;56.41;97928.03;5088424;28;20049;-70
2023/04/24 06:32:41;;;;;;;3.58;2.70;;;;;;;14.72;56.25;98007.16;5089054;28;20112;-69
2023/04/24 06:35:11;;;;;;;3.38;2.38;;;;;;;14.74;56.59;98001.66;5088663;28;20044;-70
2023/04/24 06:37:38;;;;;;;5.30;2.72;;;;;;;14.74;56.63;98001.66;5088457;28;20079;-70
2023/04/24 06:40:05;;;;;;;3.40;2.50;;;;;;;14.34;56.15;97921.84;5088738;28;20045;-70
2023/04/24 06:42:32;;;;;;;3.20;2.33;;;;;;;14.68;55.83;97965.75;5088294;28;20228;-70
2023/04/24 06:45:00;;;;;;;4.00;2.90;;;;;;;14.94;56.14;98003.31;5087415;28;20036;-70
2023/04/24 06:47:27;;;;;;;3.67;2.47;;;;;;;14.99;55.56;97998.38;5088393;28;20051;-69
2023/04/24 06:49:54;;;;;;;2.85;2.25;;;;;;;14.79;56.06;97959.41;5088417;28;20109;-70
2023/04/24 06:52:23;;;;;;;4.40;2.60;;;;;;;15.03;55.95;97990.91;5087971;28;20068;-70
2023/04/24 06:54:49;;;;;;;3.58;2.58;;;;;;;14.86;55.82;97955.16;5088374;28;20040;-70
2023/04/24 06:57:17;;;;;;;2.60;2.30;;;;;;;14.88;55.88;97963.88;5088134;28;20054;-69
2023/04/24 06:59:43;;;;;;;3.58;2.35;;;;;;;15.11;55.53;98001.69;5088381;28;20040;-70
2023/04/24 07:02:10;;;;;;;3.53;2.40;;;;;;;15.13;55.38;98004.22;5087940;28;20044;-70
2023/04/24 07:04:37;;;;;;;3.22;2.47;;;;;;;15.11;55.42;98003.53;5087239;28;20048;-69
2023/04/24 07:07:04;;;;;;;2.55;1.88;;;;;;;15.05;55.54;98020.97;5087954;28;20059;-69
2023/04/24 07:09:32;;;;;;;3.20;2.20;;;;;;;14.98;55.48;98012.69;5088064;28;20115;-69
2023/04/24 07:11:59;;;;;;;3.47;2.10;;;;;;;14.99;56.03;98021.53;5086850;28;20036;-69
2023/04/24 07:14:26;;;;;;;2.70;1.83;;;;;;;14.72;55.74;97975.13;5087922;28;20036;-69
2023/04/24 07:16:52;;;;;;;5.75;2.10;;;;;;;14.98;55.57;98028.69;5087019;28;20043;-70
2023/04/24 07:19:19;;;;;;;2.80;1.90;;;;;;;14.98;55.59;98022.53;5087722;28;20203;-70
2023/04/24 07:21:46;;;;;;;3.15;2.03;;;;;;;14.95;55.94;98023.66;5087680;28;20243;-69
2023/04/24 07:24:13;;;;;;;2.92;2.10;;;;;;;14.99;55.94;98025.06;5086691;28;20260;-69
2023/04/24 07:26:41;;;;;;;3.35;2.05;;;;;;;15.01;55.65;98028.41;5086681;28;20063;-69
2023/04/24 07:29:08;;;;;;;3.30;2.10;;;;;;;15.03;55.92;98034.44;5086677;28;20040;-70
2023/04/24 07:31:35;;;;;;;2.60;1.80;;;;;;;15.06;55.56;98041.31;5086656;28;20115;-70
2023/04/24 07:34:02;;;;;;;2.67;2.00;;;;;;;15.06;56.06;98035.97;5086585;28;20036;-70
2023/04/24 07:36:29;;;;;;;3.35;1.90;;;;;;;14.93;55.99;98022.13;5087269;28;20043;-69
2023/04/24 07:38:57;;;;;;;3.10;2.00;;;;;;;15.08;56.36;98050.88;5087229;28;20067;-69
2023/04/24 07:41:24;;;;;;;3.17;2.08;;;;;;;15.13;56.42;98053.09;5086117;28;20051;-70
2023/04/24 07:43:53;;;;;;;3.28;2.03;;;;;;;14.73;56.20;97990.16;5086299;28;20044;-69
2023/04/24 07:46:21;;;;;;;4.32;2.70;;;;;;;14.70;56.23;97966.44;5087309;28;20358;-69
2023/04/24 07:48:48;;;;;;;3.60;2.15;;;;;;;15.43;55.71;98054.69;5087003;28;20033;-69
2023/04/24 07:51:15;;;;;;;3.85;2.35;;;;;;;15.44;55.72;98060.88;5086898;28;20047;-69
2023/04/24 07:53:42;;;;;;;2.80;1.85;;;;;;;15.29;56.12;98063.16;5087252;28;20086;-70
2023/04/24 07:56:09;;;;;;;4.30;2.08;;;;;;;15.20;56.48;98064.03;5087313;28;20040;-69
2023/04/24 07:58:36;;;;;;;3.08;1.90;;;;;;;14.69;56.69;97982.59;5085899;28;20072;-69
2023/04/24 08:01:04;;;;;;;2.60;1.77;;;;;;;14.66;57.32;97990.88;5086993;28;20047;-70
2023/04/24 08:03:31;;;;;;;3.08;2.20;;;;;;;15.00;58.08;98079.25;5086789;28;20041;-70
2023/04/24 08:05:58;;;;;;;2.65;2.03;;;;;;;14.68;58.30;98037.75;5087009;28;20281;-69
2023/04/24 08:08:24;;;;;;;3.53;2.00;;;;;;;14.79;58.79;98083.91;5086893;28;20054;-69
2023/04/24 08:10:51;;;;;;;3.38;2.10;;;;;;;14.71;58.61;98074.78;5086756;28;20037;-69
2023/04/24 08:13:18;;;;;;;2.92;2.08;;;;;;;14.68;58.72;98075.06;5085941;28;20039;-70
2023/04/24 08:15:45;;;;;;;3.70;2.30;;;;;;;14.70;58.86;98070.44;5085818;28;20040;-70
2023/04/24 08:18:15;;;;;;;2.92;2.22;;;;;;;14.68;58.57;98076.91;5085741;28;20064;-70
2023/04/24 08:20:45;;;;;;;2.80;1.90;;;;;;;14.52;58.60;98074.75;5086486;28;20209;-69
2023/04/24 08:23:12;;;;;;;4.05;2.05;;;;;;;14.57;59.25;98077.84;5085691;28;20033;-70
2023/04/24 08:25:38;;;;;;;2.80;1.90;;;;;;;14.58;58.78;98092.88;5086440;28;20040;-70
2023/04/24 08:28:07;;;;;;;3.42;2.13;;;;;;;14.55;58.76;98084.28;5085850;28;20089;-70
2023/04/24 08:30:34;;;;;;;2.45;1.70;;;;;;;14.50;58.44;98100.69;5086320;28;20197;-69
2023/04/24 08:33:01;;;;;;;2.42;1.70;;;;;;;14.48;58.39;98093.81;5086363;28;20036;-71
2023/04/24 08:35:29;;;;;;;2.55;1.85;;;;;;;14.47;58.88;98098.31;5086014;28;20044;-70
2023/04/24 08:37:56;;;;;;;2.83;1.80;;;;;;;14.43;58.86;98095.06;5085321;28;20040;-70
2023/04/24 08:40:30;;;;;;;2.25;1.50;;;;;;;14.30;60.24;98105.16;5086456;28;20056;-70
2023/04/24 08:42:57;;;;;;;4.60;2.25;;;;;;;14.07;60.15;98083.25;5085987;28;20056;-70
2023/04/24 08:45:25;;;;;;;2.83;1.40;;;;;;;13.16;60.30;97977.72;5086373;28;20067;-70
2023/04/24 08:47:54;;;;;;;2.90;1.50;;;;;;;13.98;60.67;98131.16;5085632;28;20040;-70
2023/04/24 08:50:21;;;;;;;2.00;1.50;;;;;;;13.69;61.32;98104.44;5084959;28;20265;-70
2023/04/24 08:52:53;;;;;;;2.13;1.38;;;;;;;13.77;61.85;98140.06;5086033;28;20086;-70
2023/04/24 08:55:20;;;;;;;2.75;1.60;;;;;;;13.66;61.82;98124.19;5085325;28;20036;-70
2023/04/24 08:57:52;;;;;;;2.15;1.40;;;;;;;13.58;62.74;98131.16;5086605;28;20185;-70
2023/04/24 09:00:20;;;;;;;1.85;1.23;;;;;;;13.53;61.72;98136.03;5084990;28;20048;-70
2023/04/24 09:02:49;;;;;;;4.57;1.60;;;;;;;13.48;62.65;98131.09;5086168;28;20090;-70
2023/04/24 09:05:17;;;;;;;2.13;1.30;;;;;;;13.38;62.65;98136.34;5086002;28;20082;-70
2023/04/24 09:07:46;;;;;;;1.90;1.25;;;;;;;13.38;63.04;98135.50;5085987;28;20071;-70
2023/04/24 09:10:15;;;;;;;2.60;1.42;;;;;;;13.33;63.10;98140.38;5086042;28;20102;-70
2023/04/24 09:12:44;;;;;;;2.70;1.70;;;;;;;13.30;62.91;98135.31;5084750;28;20032;-70
2023/04/24 09:15:12;;;;;;;2.28;1.40;;;;;;;13.26;62.78;98142.72;5085680;28;20043;-70
2023/04/24 09:17:39;;;;;;;2.30;1.48;;;;;;;13.23;62.68;98139.47;5086033;28;20094;-70
2023/04/24 09:20:07;;;;;;;3.30;1.35;;;;;;;12.72;62.97;98061.31;5084534;28;20044;-69
2023/04/24 09:22:34;;;;;;;1.45;1.10;;;;;;;13.14;62.82;98133.97;5085743;28;20040;-71
2023/04/24 09:25:04;;;;;;;2.22;1.48;;;;;;;12.53;62.98;98037.25;5084591;28;20048;-71
2023/04/24 09:27:32;;;;;;;1.88;1.20;;;;;;;13.15;62.78;98140.97;5084518;28;20032;-70
2023/04/24 09:30:00;;;;;;;2.53;1.42;;;;;;;12.98;62.52;98111.44;5085738;28;20040;-70
2023/04/24 09:32:29;;;;;;;2.30;1.40;;;;;;;13.11;62.71;98142.19;5085541;28;20037;-70
2023/04/24 09:35:11;;;;;;;2.05;1.38;;;;;;;13.11;63.81;98144.88;5084572;28;20315;-70
2023/04/24 09:37:41;;;;;;;1.88;1.30;;;;;;;12.91;62.76;98119.09;5085383;28;20040;-70
2023/04/24 09:40:13;;;;;;;3.30;1.52;;;;;;;13.00;63.41;98142.25;5084515;28;20066;-70
2023/04/24 09:42:44;;;;;;;3.15;1.77;;;;;;;12.78;63.18;98111.31;5084170;28;20090;-70
2023/04/24 09:45:11;;;;;;;2.47;1.50;;;;;;;12.94;62.74;98134.81;5085327;28;20064;-70
2023/04/24 09:47:38;;;;;;;2.10;1.20;;;;;;;12.91;62.56;98159.00;5067705;28;20064;-70
2023/04/24 09:50:13;;;;;;;2.47;1.40;;;;;;;11.71;63.17;97951.94;5085821;28;20043;-71
2023/04/24 09:52:45;;;;;;;2.97;1.60;;;;;;;12.85;63.03;98140.88;5085594;28;20047;-70
2023/04/24 09:55:18;;;;;;;3.17;1.50;;;;;;;12.71;62.33;98120.78;5085475;28;20041;-70
2023/04/24 09:58:05;;;;;;;2.38;1.63;;;;;;;12.54;63.56;98094.75;5085231;28;20102;-70
2023/04/24 10:00:33;;;;;;;1.80;1.25;;;;;;;12.39;62.32;98075.63;5085830;28;20111;-70
2023/04/24 10:03:02;;;;;;;2.17;1.27;;;;;;;12.68;62.20;98125.50;5085647;28;20040;-70
2023/04/24 10:05:31;;;;;;;2.47;1.55;;;;;;;12.84;62.47;98157.81;5089079;28;20082;-70
2023/04/24 10:07:59;;;;;;;2.03;1.38;;;;;;;12.83;62.52;98146.34;5088389;28;20041;-70
2023/04/24 10:10:25;;;;;;;2.55;1.30;;;;;;;12.85;62.40;98154.19;5089649;28;20111;-70
2023/04/24 10:12:55;;;;;;;2.20;1.20;;;;;;;12.73;62.90;98125.97;5089139;28;20107;-69
2023/04/24 10:15:22;;;;;;;2.78;1.60;;;;;;;12.40;62.08;98079.94;5088892;28;20344;-70
2023/04/24 10:17:52;;;;;;;2.35;1.60;;;;;;;12.90;62.08;98156.47;5089246;28;20086;-70
2023/04/24 10:20:21;;;;;;;2.20;1.45;;;;;;;12.87;62.52;98162.88;5088072;28;20262;-70
2023/04/24 10:22:51;;;;;;;2.10;1.30;;;;;;;12.87;62.39;98170.84;5088834;28;20099;-71
2023/04/24 10:25:20;;;;;;;2.40;1.73;;;;;;;12.72;62.43;98143.72;5087646;28;20040;-70
2023/04/24 10:27:49;;;;;;;3.08;1.30;;;;;;;12.48;62.65;98101.41;5088477;28;20041;-71
2023/04/24 10:30:19;;;;;;;2.58;1.30;;;;;;;12.61;62.87;98143.78;5088372;28;20304;-70
2023/04/24 10:32:47;;;;;;;2.38;1.30;;;;;;;12.72;63.08;98158.84;5088377;28;20048;-70
2023/04/24 10:35:15;;;;;;;3.55;1.58;;;;;;;12.76;63.21;98165.59;5088614;28;20056;-70
2023/04/24 10:37:46;;;;;;;2.45;1.50;;;;;;;12.77;63.77;98167.28;5087966;28;20055;-71
2023/04/24 10:40:18;;;;;;;2.53;1.58;;;;;;;12.73;63.42;98174.66;5086964;28;20044;-71
2023/04/24 10:42:48;;;;;;;2.30;1.50;;;;;;;12.71;64.35;98175.75;5087548;28;20053;-70
2023/04/24 10:45:21;;;;;;;2.58;1.50;;;;;;;12.70;64.82;98180.22;5087459;28;20063;-70
2023/04/24 10:48:00;;;;;;;2.85;1.50;;;;;;;12.69;65.95;98181.19;5088335;28;20116;-70
2023/04/24 10:50:29;;;;;;;1.83;1.30;;;;;;;12.64;64.17;98178.06;5104951;28;20116;-70
2023/04/24 10:53:07;;;;;;;1.73;1.30;;;;;;;12.63;65.93;98186.19;5088016;28;20044;-70
2023/04/24 10:55:46;;;;;;;1.85;1.30;;;;;;;12.63;65.77;98180.84;5087287;28;20053;-71
2023/04/24 10:58:16;;;;;;;3.00;1.75;;;;;;;12.60;64.58;98179.28;5104234;28;20115;-70
2023/04/24 11:00:46;;;;;;;2.58;1.60;;;;;;;12.59;64.92;98196.22;5087349;28;20048;-70
2023/04/24 11:03:28;;;;;;;2.83;1.50;;;;;;;12.62;66.41;98177.34;5088437;28;20064;-69
2023/04/24 11:06:00;;;;;;;3.13;1.95;;;;;;;12.64;65.59;98175.41;5104615;28;20052;-70
2023/04/24 11:08:31;;;;;;;2.40;1.50;;;;;;;12.54;65.02;98149.72;5088452;28;20040;-70
2023/04/24 11:11:10;;;;;;;2.58;1.70;;;;;;;12.70;66.37;98182.88;5088295;28;20052;-70
2023/04/24 11:14:04;;;;;;;3.47;1.77;;;;;;;12.73;66.89;98184.44;5086743;28;20037;-70
2023/04/24 11:16:34;;;;;;;2.50;1.60;;;;;;;12.74;66.10;98186.97;5086971;28;20040;-70
2023/04/24 11:19:03;;;;;;;2.40;1.67;;;;;;;12.72;65.09;98180.94;5088054;28;20056;-70
2023/04/24 11:21:32;;;;;;;2.97;1.65;;;;;;;12.73;65.49;98187.94;5087128;28;20044;-70
2023/04/24 11:23:59;;;;;;;4.05;1.67;;;;;;;12.53;65.75;98151.53;5086700;28;20123;-70
2023/04/24 11:26:32;;;;;;;3.63;1.85;;;;;;;12.77;65.54;98188.53;5086736;28;20164;-71
2023/04/24 11:29:08;;;;;;;2.45;1.63;;;;;;;12.77;67.21;98196.53;5086719;28;20142;-70
2023/04/24 11:31:41;;;;;;;3.38;1.70;;;;;;;12.81;66.72;98182.84;5087207;28;20067;-71
2023/04/24 11:34:12;;;;;;;2.67;1.58;;;;;;;12.85;66.43;98199.38;5086846;28;20223;-71
2023/04/24 11:36:40;;;;;;;2.45;1.73;;;;;;;12.87;65.27;98189.47;5087689;28;20059;-70
2023/04/24 11:39:07;;;;;;;2.50;1.63;;;;;;;12.87;65.34;98197.44;5087833;28;20304;-70